sensor_id;sensor_type;location;lat;lon;timestamp;pressure;altitude;pressure_sealevel;temperature;humidity
11682;BME280;5897;42.640;23.310;2023-03-22T00:00:35;93556.94;;;10.76;100.00
11682;BME280;5897;42.640;23.310;2023-03-22T00:03:02;93558.44;;;10.77;100.00
11682;BME280;5897;42.640;23.310;2023-03-22T00:05:30;93557.47;;;10.71;100.00
11682;BME280;5897;42.640;23.310;2023-03-22T00:07:57;93557.81;;;10.73;100.00
11682;BME280;5897;42.640;23.310;2023-03-22T00:10:26;93544.50;;;10.66;100.00
11682;BME280;5897;42.640;23.310;2023-03-22T00:12:54;93549.91;;;10.66;100.00
11682;BME280;5897;42.640;23.310;2023-03-22T00:15:20;93544.63;;;10.63;100.00
11682;BME280;5897;42.640;23.310;2023-03-22T00:17:48;93544.97;;;10.65;100.00
11682;BME280;5897;42.640;23.310;2023-03-22T00:20:16;93551.88;;;10.66;100.00
11682;BME280;5897;42.640;23.310;2023-03-22T00:22:44;93552.09;;;10.59;100.00
11682;BME280;5897;42.640;23.310;2023-03-22T00:25:11;93541.63;;;10.48;100.00
11682;BME280;5897;42.640;23.310;2023-03-22T00:27:39;93549.31;;;10.50;100.00
11682;BME280;5897;42.640;23.310;2023-03-22T00:30:07;93538.72;;;10.43;100.00
11682;BME280;5897;42.640;23.310;2023-03-22T00:32:35;93544.69;;;10.38;100.00
11682;BME280;5897;42.640;23.310;2023-03-22T00:35:02;93533.75;;;10.29;100.00
11682;BME280;5897;42.640;23.310;2023-03-22T00:37:28;93530.84;;;10.11;100.00
11682;BME280;5897;42.640;23.310;2023-03-22T00:39:58;93534.09;;;10.18;100.00
11682;BME280;5897;42.640;23.310;2023-03-22T00:42:25;93536.91;;;10.27;100.00
11682;BME280;5897;42.640;23.310;2023-03-22T00:44:53;93529.25;;;10.26;100.00
11682;BME280;5897;42.640;23.310;2023-03-22T00:47:20;93544.13;;;10.30;100.00
11682;BME280;5897;42.640;23.310;2023-03-22T00:49:47;93533.34;;;10.30;100.00
11682;BME280;5897;42.640;23.310;2023-03-22T00:52:14;93530.41;;;10.37;100.00
11682;BME280;5897;42.640;23.310;2023-03-22T00:54:41;93534.19;;;10.40;100.00
11682;BME280;5897;42.640;23.310;2023-03-22T00:57:08;93532.78;;;10.35;100.00
11682;BME280;5897;42.640;23.310;2023-03-22T00:59:34;93537.88;;;10.33;100.00
11682;BME280;5897;42.640;23.310;2023-03-22T01:02:04;93532.47;;;10.21;100.00
11682;BME280;5897;42.640;23.310;2023-03-22T01:04:31;93538.66;;;10.21;100.00
11682;BME280;5897;42.640;23.310;2023-03-22T01:07:00;93530.56;;;10.21;100.00
11682;BME280;5897;42.640;23.310;2023-03-22T01:09:29;93538.22;;;10.10;100.00
11682;BME280;5897;42.640;23.310;2023-03-22T01:11:59;93528.78;;;10.02;100.00
11682;BME280;5897;42.640;23.310;2023-03-22T01:14:27;93527.81;;;9.96;100.00
11682;BME280;5897;42.640;23.310;2023-03-22T01:16:56;93526.09;;;10.02;100.00
11682;BME280;5897;42.640;23.310;2023-03-22T01:19:24;93527.50;;;9.94;100.00
11682;BME280;5897;42.640;23.310;2023-03-22T01:21:52;93523.94;;;9.85;100.00
11682;BME280;5897;42.640;23.310;2023-03-22T01:24:19;93521.75;;;9.80;100.00
11682;BME280;5897;42.640;23.310;2023-03-22T01:26:45;93514.88;;;9.79;100.00
11682;BME280;5897;42.640;23.310;2023-03-22T01:29:12;93521.31;;;9.94;100.00
11682;BME280;5897;42.640;23.310;2023-03-22T01:31:39;93523.47;;;9.86;100.00
11682;BME280;5897;42.640;23.310;2023-03-22T01:34:05;93513.25;;;9.81;100.00
11682;BME280;5897;42.640;23.310;2023-03-22T01:36:34;93513.31;;;9.78;100.00
11682;BME280;5897;42.640;23.310;2023-03-22T01:39:02;93518.97;;;9.83;100.00
11682;BME280;5897;42.640;23.310;2023-03-22T01:41:29;93517.56;;;9.79;100.00
11682;BME280;5897;42.640;23.310;2023-03-22T01:44:07;93501.25;;;9.70;100.00
11682;BME280;5897;42.640;23.310;2023-03-22T01:46:34;93512.06;;;9.82;100.00
11682;BME280;5897;42.640;23.310;2023-03-22T01:49:02;93514.41;;;9.80;100.00
11682;BME280;5897;42.640;23.310;2023-03-22T01:51:30;93510.09;;;9.70;100.00
11682;BME280;5897;42.640;23.310;2023-03-22T01:54:00;93513.00;;;9.51;100.00
11682;BME280;5897;42.640;23.310;2023-03-22T01:56:30;93515.16;;;9.56;100.00
11682;BME280;5897;42.640;23.310;2023-03-22T01:58:59;93510.06;;;9.45;100.00
11682;BME280;5897;42.640;23.310;2023-03-22T02:01:26;93503.56;;;9.43;100.00
11682;BME280;5897;42.640;23.310;2023-03-22T02:03:56;93509.94;;;9.49;100.00
11682;BME280;5897;42.640;23.310;2023-03-22T02:06:24;93514.34;;;9.43;100.00
11682;BME280;5897;42.640;23.310;2023-03-22T02:08:54;93509.72;;;9.43;100.00
11682;BME280;5897;42.640;23.310;2023-03-22T02:11:28;93504.34;;;9.43;100.00
11682;BME280;5897;42.640;23.310;2023-03-22T02:14:14;93504.19;;;9.34;100.00
11682;BME280;5897;42.640;23.310;2023-03-22T02:16:49;93502.38;;;9.44;100.00
11682;BME280;5897;42.640;23.310;2023-03-22T02:22:45;93511.03;;;9.39;100.00
11682;BME280;5897;42.640;23.310;2023-03-22T02:28:30;93513.63;;;9.42;100.00
11682;BME280;5897;42.640;23.310;2023-03-22T02:40:13;93519.91;;;9.23;100.00
11682;BME280;5897;42.640;23.310;2023-03-22T02:42:49;93528.50;;;9.18;100.00
11682;BME280;5897;42.640;23.310;2023-03-22T02:45:25;93520.44;;;9.18;100.00
11682;BME280;5897;42.640;23.310;2023-03-22T02:48:00;93535.63;;;9.12;100.00
11682;BME280;5897;42.640;23.310;2023-03-22T02:50:36;93536.69;;;9.15;100.00
11682;BME280;5897;42.640;23.310;2023-03-22T02:53:08;93530.69;;;9.23;100.00
11682;BME280;5897;42.640;23.310;2023-03-22T02:55:43;93532.75;;;9.32;100.00
11682;BME280;5897;42.640;23.310;2023-03-22T02:58:14;93531.34;;;9.27;100.00
11682;BME280;5897;42.640;23.310;2023-03-22T03:00:43;93539.66;;;9.20;100.00
11682;BME280;5897;42.640;23.310;2023-03-22T03:03:13;93538.13;;;9.19;100.00
11682;BME280;5897;42.640;23.310;2023-03-22T03:05:45;93536.69;;;9.15;100.00
11682;BME280;5897;42.640;23.310;2023-03-22T03:08:14;93533.91;;;9.18;100.00
11682;BME280;5897;42.640;23.310;2023-03-22T03:10:43;93536.78;;;9.11;100.00
11682;BME280;5897;42.640;23.310;2023-03-22T03:13:11;93531.50;;;9.08;100.00
11682;BME280;5897;42.640;23.310;2023-03-22T03:15:39;93538.59;;;9.02;100.00
11682;BME280;5897;42.640;23.310;2023-03-22T03:18:19;93545.41;;;9.06;100.00
11682;BME280;5897;42.640;23.310;2023-03-22T03:20:57;93540.00;;;9.06;100.00
11682;BME280;5897;42.640;23.310;2023-03-22T03:23:32;93546.25;;;9.03;100.00
11682;BME280;5897;42.640;23.310;2023-03-22T03:26:07;93543.16;;;9.05;100.00
11682;BME280;5897;42.640;23.310;2023-03-22T03:28:41;93542.97;;;9.12;100.00
11682;BME280;5897;42.640;23.310;2023-03-22T03:31:20;93529.75;;;9.01;100.00
11682;BME280;5897;42.640;23.310;2023-03-22T03:33:58;93545.56;;;9.15;100.00
11682;BME280;5897;42.640;23.310;2023-03-22T03:36:27;93549.28;;;9.05;100.00
11682;BME280;5897;42.640;23.310;2023-03-22T03:38:57;93549.47;;;8.98;100.00
11682;BME280;5897;42.640;23.310;2023-03-22T03:41:27;93556.53;;;9.08;100.00
11682;BME280;5897;42.640;23.310;2023-03-22T03:43:56;93549.28;;;9.05;100.00
11682;BME280;5897;42.640;23.310;2023-03-22T03:46:24;93548.59;;;9.01;100.00
11682;BME280;5897;42.640;23.310;2023-03-22T03:48:51;93556.78;;;8.98;100.00
11682;BME280;5897;42.640;23.310;2023-03-22T03:51:20;93552.16;;;8.98;100.00
11682;BME280;5897;42.640;23.310;2023-03-22T03:53:47;93552.25;;;8.95;100.00
11682;BME280;5897;42.640;23.310;2023-03-22T03:56:14;93546.00;;;8.98;100.00
11682;BME280;5897;42.640;23.310;2023-03-22T03:58:42;93550.84;;;8.90;100.00
11682;BME280;5897;42.640;23.310;2023-03-22T04:01:09;93553.78;;;8.96;100.00
11682;BME280;5897;42.640;23.310;2023-03-22T04:03:35;93563.44;;;8.93;100.00
11682;BME280;5897;42.640;23.310;2023-03-22T04:06:02;93556.88;;;8.94;100.00
11682;BME280;5897;42.640;23.310;2023-03-22T04:08:29;93553.78;;;8.96;100.00
11682;BME280;5897;42.640;23.310;2023-03-22T04:10:56;93563.44;;;8.93;100.00
11682;BME280;5897;42.640;23.310;2023-03-22T04:13:23;93563.25;;;9.00;100.00
11682;BME280;5897;42.640;23.310;2023-03-22T04:15:54;93555.56;;;8.86;100.00
11682;BME280;5897;42.640;23.310;2023-03-22T04:18:22;93562.47;;;8.87;100.00
11682;BME280;5897;42.640;23.310;2023-03-22T04:20:49;93558.47;;;8.92;100.00
11682;BME280;5897;42.640;23.310;2023-03-22T04:23:18;93558.25;;;8.86;100.00
11682;BME280;5897;42.640;23.310;2023-03-22T04:25:47;93562.69;;;8.93;100.00
11682;BME280;5897;42.640;23.310;2023-03-22T04:28:15;93560.75;;;8.93;100.00
11682;BME280;5897;42.640;23.310;2023-03-22T04:30:41;93566.84;;;8.81;100.00
11682;BME280;5897;42.640;23.310;2023-03-22T04:33:11;93564.81;;;8.85;100.00
11682;BME280;5897;42.640;23.310;2023-03-22T04:35:39;93572.72;;;8.92;100.00
11682;BME280;5897;42.640;23.310;2023-03-22T04:38:06;93569.59;;;8.94;100.00
11682;BME280;5897;42.640;23.310;2023-03-22T04:40:34;93558.16;;;8.90;100.00
11682;BME280;5897;42.640;23.310;2023-03-22T04:43:03;93569.66;;;9.06;100.00
11682;BME280;5897;42.640;23.310;2023-03-22T04:45:30;93576.31;;;9.02;100.00
11682;BME280;5897;42.640;23.310;2023-03-22T04:47:59;93576.56;;;9.07;100.00
11682;BME280;5897;42.640;23.310;2023-03-22T04:50:27;93578.91;;;9.05;100.00
11682;BME280;5897;42.640;23.310;2023-03-22T04:52:54;93585.50;;;9.04;100.00
11682;BME280;5897;42.640;23.310;2023-03-22T04:55:22;93581.91;;;8.95;100.00
11682;BME280;5897;42.640;23.310;2023-03-22T04:57:51;93591.81;;;8.98;100.00
11682;BME280;5897;42.640;23.310;2023-03-22T05:00:19;93589.22;;;8.94;100.00
11682;BME280;5897;42.640;23.310;2023-03-22T05:02:46;93588.97;;;8.89;100.00
11682;BME280;5897;42.640;23.310;2023-03-22T05:05:14;93598.56;;;8.90;100.00
11682;BME280;5897;42.640;23.310;2023-03-22T05:07:42;93603.03;;;8.96;100.00
11682;BME280;5897;42.640;23.310;2023-03-22T05:10:09;93594.84;;;9.00;100.00
11682;BME280;5897;42.640;23.310;2023-03-22T05:12:36;93599.06;;;9.01;100.00
11682;BME280;5897;42.640;23.310;2023-03-22T05:15:04;93596.38;;;8.85;100.00
11682;BME280;5897;42.640;23.310;2023-03-22T05:17:31;93601.34;;;9.02;100.00
11682;BME280;5897;42.640;23.310;2023-03-22T05:19:58;93602.06;;;9.03;100.00
11682;BME280;5897;42.640;23.310;2023-03-22T05:22:32;93600.47;;;9.05;100.00
11682;BME280;5897;42.640;23.310;2023-03-22T05:25:04;93604.25;;;9.08;100.00
11682;BME280;5897;42.640;23.310;2023-03-22T05:27:31;93604.06;;;9.15;100.00
11682;BME280;5897;42.640;23.310;2023-03-22T05:29:59;93601.88;;;9.10;100.00
11682;BME280;5897;42.640;23.310;2023-03-22T05:32:26;93611.84;;;9.13;100.00
11682;BME280;5897;42.640;23.310;2023-03-22T05:34:54;93608.94;;;9.20;100.00
11682;BME280;5897;42.640;23.310;2023-03-22T05:37:20;93610.91;;;9.19;100.00
11682;BME280;5897;42.640;23.310;2023-03-22T05:39:47;93611.22;;;9.21;100.00
11682;BME280;5897;42.640;23.310;2023-03-22T05:42:16;93620.50;;;9.20;100.00
11682;BME280;5897;42.640;23.310;2023-03-22T05:44:42;93611.44;;;9.27;100.00
11682;BME280;5897;42.640;23.310;2023-03-22T05:47:09;93618.94;;;9.35;100.00
11682;BME280;5897;42.640;23.310;2023-03-22T05:49:36;93623.38;;;9.42;100.00
11682;BME280;5897;42.640;23.310;2023-03-22T05:52:03;93617.16;;;9.45;100.00
11682;BME280;5897;42.640;23.310;2023-03-22T05:54:31;93610.00;;;9.38;100.00
11682;BME280;5897;42.640;23.310;2023-03-22T05:56:58;93628.47;;;9.52;100.00
11682;BME280;5897;42.640;23.310;2023-03-22T05:59:26;93634.22;;;9.54;100.00
11682;BME280;5897;42.640;23.310;2023-03-22T06:01:53;93626.25;;;9.51;100.00
11682;BME280;5897;42.640;23.310;2023-03-22T06:04:20;93634.25;;;9.67;100.00
11682;BME280;5897;42.640;23.310;2023-03-22T06:06:46;93641.44;;;9.57;100.00
11682;BME280;5897;42.640;23.310;2023-03-22T06:09:14;93638.00;;;9.57;100.00
11682;BME280;5897;42.640;23.310;2023-03-22T06:11:41;93645.03;;;9.67;100.00
11682;BME280;5897;42.640;23.310;2023-03-22T06:14:08;93645.81;;;9.67;100.00
11682;BME280;5897;42.640;23.310;2023-03-22T06:16:36;93649.78;;;9.63;100.00
11682;BME280;5897;42.640;23.310;2023-03-22T06:19:02;93638.44;;;9.55;100.00
11682;BME280;5897;42.640;23.310;2023-03-22T06:21:29;93638.16;;;9.37;100.00
11682;BME280;5897;42.640;23.310;2023-03-22T06:23:56;93644.06;;;9.32;100.00
11682;BME280;5897;42.640;23.310;2023-03-22T06:26:23;93637.47;;;9.33;100.00
11682;BME280;5897;42.640;23.310;2023-03-22T06:28:50;93637.38;;;9.37;100.00
11682;BME280;5897;42.640;23.310;2023-03-22T06:31:17;93643.81;;;9.55;100.00
11682;BME280;5897;42.640;23.310;2023-03-22T06:33:45;93650.97;;;9.62;100.00
11682;BME280;5897;42.640;23.310;2023-03-22T06:36:12;93641.09;;;9.71;100.00
11682;BME280;5897;42.640;23.310;2023-03-22T06:38:39;93648.13;;;9.81;100.00
11682;BME280;5897;42.640;23.310;2023-03-22T06:41:06;93653.31;;;9.88;100.00
11682;BME280;5897;42.640;23.310;2023-03-22T06:43:32;93653.53;;;9.94;100.00
11682;BME280;5897;42.640;23.310;2023-03-22T06:45:59;93650.53;;;9.92;100.00
11682;BME280;5897;42.640;23.310;2023-03-22T06:48:26;93670.28;;;10.01;100.00
11682;BME280;5897;42.640;23.310;2023-03-22T06:50:54;93663.22;;;10.07;100.00
11682;BME280;5897;42.640;23.310;2023-03-22T06:53:21;93654.28;;;10.10;100.00
11682;BME280;5897;42.640;23.310;2023-03-22T06:55:48;93668.28;;;10.05;100.00
11682;BME280;5897;42.640;23.310;2023-03-22T06:58:15;93670.81;;;9.96;100.00
11682;BME280;5897;42.640;23.310;2023-03-22T07:00:42;93672.00;;;9.95;100.00
11682;BME280;5897;42.640;23.310;2023-03-22T07:03:08;93674.72;;;9.95;100.00
11682;BME280;5897;42.640;23.310;2023-03-22T07:05:35;93678.31;;;10.05;100.00
11682;BME280;5897;42.640;23.310;2023-03-22T07:08:03;93681.97;;;9.98;100.00
11682;BME280;5897;42.640;23.310;2023-03-22T07:10:30;93684.97;;;10.00;100.00
11682;BME280;5897;42.640;23.310;2023-03-22T07:12:57;93696.63;;;9.97;100.00
11682;BME280;5897;42.640;23.310;2023-03-22T07:15:24;93683.13;;;9.97;100.00
11682;BME280;5897;42.640;23.310;2023-03-22T07:17:51;93675.75;;;9.85;100.00
11682;BME280;5897;42.640;23.310;2023-03-22T07:20:18;93687.34;;;9.98;100.00
11682;BME280;5897;42.640;23.310;2023-03-22T07:22:45;93691.06;;;10.04;100.00
11682;BME280;5897;42.640;23.310;2023-03-22T07:25:13;93701.31;;;10.09;100.00
11682;BME280;5897;42.640;23.310;2023-03-22T07:27:40;93704.94;;;10.19;100.00
11682;BME280;5897;42.640;23.310;2023-03-22T07:30:07;93702.34;;;10.15;100.00
11682;BME280;5897;42.640;23.310;2023-03-22T07:32:34;93696.47;;;10.17;100.00
11682;BME280;5897;42.640;23.310;2023-03-22T07:35:01;93704.78;;;10.10;100.00
11682;BME280;5897;42.640;23.310;2023-03-22T07:37:28;93704.38;;;9.95;100.00
11682;BME280;5897;42.640;23.310;2023-03-22T07:39:55;93707.66;;;10.03;100.00
11682;BME280;5897;42.640;23.310;2023-03-22T07:42:23;93701.66;;;10.11;100.00
11682;BME280;5897;42.640;23.310;2023-03-22T07:44:49;93709.88;;;10.20;100.00
11682;BME280;5897;42.640;23.310;2023-03-22T07:47:16;93711.94;;;10.16;100.00
11682;BME280;5897;42.640;23.310;2023-03-22T07:49:43;93716.81;;;10.21;100.00
11682;BME280;5897;42.640;23.310;2023-03-22T07:52:10;93718.44;;;10.19;100.00
11682;BME280;5897;42.640;23.310;2023-03-22T07:54:36;93711.59;;;10.14;100.00
11682;BME280;5897;42.640;23.310;2023-03-22T07:57:03;93717.97;;;10.08;100.00
11682;BME280;5897;42.640;23.310;2023-03-22T07:59:32;93715.06;;;10.15;100.00
11682;BME280;5897;42.640;23.310;2023-03-22T08:01:59;93721.34;;;10.24;100.00
11682;BME280;5897;42.640;23.310;2023-03-22T08:04:26;93717.25;;;10.32;100.00
11682;BME280;5897;42.640;23.310;2023-03-22T08:06:53;93708.63;;;10.37;100.00
11682;BME280;5897;42.640;23.310;2023-03-22T08:09:23;93698.91;;;10.27;100.00
11682;BME280;5897;42.640;23.310;2023-03-22T08:11:50;93726.34;;;10.38;100.00
11682;BME280;5897;42.640;23.310;2023-03-22T08:14:17;93720.50;;;10.40;100.00
11682;BME280;5897;42.640;23.310;2023-03-22T08:16:45;93717.69;;;10.43;100.00
11682;BME280;5897;42.640;23.310;2023-03-22T08:19:12;93723.56;;;10.42;100.00
11682;BME280;5897;42.640;23.310;2023-03-22T08:21:39;93722.47;;;10.39;100.00
11682;BME280;5897;42.640;23.310;2023-03-22T08:24:06;93720.94;;;10.38;100.00
11682;BME280;5897;42.640;23.310;2023-03-22T08:26:33;93720.03;;;10.29;100.00
11682;BME280;5897;42.640;23.310;2023-03-22T08:29:00;93725.03;;;10.30;100.00
11682;BME280;5897;42.640;23.310;2023-03-22T08:31:27;93729.59;;;10.33;100.00
11682;BME280;5897;42.640;23.310;2023-03-22T08:33:55;93724.41;;;10.39;100.00
11682;BME280;5897;42.640;23.310;2023-03-22T08:36:22;93727.66;;;10.46;100.00
11682;BME280;5897;42.640;23.310;2023-03-22T08:38:49;93724.31;;;10.55;100.00
11682;BME280;5897;42.640;23.310;2023-03-22T08:41:16;93730.38;;;10.59;100.00
11682;BME280;5897;42.640;23.310;2023-03-22T08:43:42;93722.91;;;10.63;100.00
11682;BME280;5897;42.640;23.310;2023-03-22T08:46:09;93729.94;;;10.60;100.00
11682;BME280;5897;42.640;23.310;2023-03-22T08:48:36;93721.41;;;10.62;100.00
11682;BME280;5897;42.640;23.310;2023-03-22T08:51:07;93725.19;;;10.64;100.00
11682;BME280;5897;42.640;23.310;2023-03-22T08:53:34;93723.25;;;10.65;100.00
11682;BME280;5897;42.640;23.310;2023-03-22T08:56:00;93738.16;;;10.69;100.00
11682;BME280;5897;42.640;23.310;2023-03-22T08:58:28;93728.88;;;10.70;100.00
11682;BME280;5897;42.640;23.310;2023-03-22T09:00:55;93741.19;;;10.71;100.00
11682;BME280;5897;42.640;23.310;2023-03-22T09:03:22;93737.94;;;10.76;100.00
11682;BME280;5897;42.640;23.310;2023-03-22T09:05:49;93736.69;;;10.81;100.00
11682;BME280;5897;42.640;23.310;2023-03-22T09:08:17;93741.50;;;10.86;100.00
11682;BME280;5897;42.640;23.310;2023-03-22T09:10:44;93752.44;;;10.82;100.00
11682;BME280;5897;42.640;23.310;2023-03-22T09:13:12;93751.34;;;10.67;100.00
11682;BME280;5897;42.640;23.310;2023-03-22T09:15:41;93750.28;;;10.65;100.00
11682;BME280;5897;42.640;23.310;2023-03-22T09:18:09;93751.00;;;10.65;100.00
11682;BME280;5897;42.640;23.310;2023-03-22T09:20:36;93745.50;;;10.69;100.00
11682;BME280;5897;42.640;23.310;2023-03-22T09:23:03;93750.91;;;10.69;100.00
11682;BME280;5897;42.640;23.310;2023-03-22T09:25:31;93751.78;;;10.66;100.00
11682;BME280;5897;42.640;23.310;2023-03-22T09:27:58;93755.97;;;10.54;100.00
11682;BME280;5897;42.640;23.310;2023-03-22T09:30:25;93750.81;;;10.60;100.00
11682;BME280;5897;42.640;23.310;2023-03-22T09:32:52;93746.91;;;10.61;100.00
11682;BME280;5897;42.640;23.310;2023-03-22T09:35:19;93754.91;;;10.64;100.00
11682;BME280;5897;42.640;23.310;2023-03-22T09:37:45;93743.69;;;10.66;100.00
11682;BME280;5897;42.640;23.310;2023-03-22T09:40:14;93751.22;;;10.58;100.00
11682;BME280;5897;42.640;23.310;2023-03-22T09:42:45;93727.66;;;10.46;100.00
11682;BME280;5897;42.640;23.310;2023-03-22T09:45:14;93746.59;;;10.59;100.00
11682;BME280;5897;42.640;23.310;2023-03-22T09:47:44;93754.91;;;10.64;100.00
11682;BME280;5897;42.640;23.310;2023-03-22T09:50:14;93747.78;;;10.70;100.00
11682;BME280;5897;42.640;23.310;2023-03-22T09:52:44;93743.88;;;10.71;100.00
11682;BME280;5897;42.640;23.310;2023-03-22T09:55:17;93741.63;;;10.82;100.00
11682;BME280;5897;42.640;23.310;2023-03-22T09:57:50;93748.00;;;10.88;100.00
11682;BME280;5897;42.640;23.310;2023-03-22T10:00:22;93741.44;;;10.89;100.00
11682;BME280;5897;42.640;23.310;2023-03-22T10:02:57;93740.13;;;10.94;100.00
11682;BME280;5897;42.640;23.310;2023-03-22T10:05:30;93747.91;;;10.92;100.00
11682;BME280;5897;42.640;23.310;2023-03-22T10:08:15;93744.13;;;10.89;100.00
11682;BME280;5897;42.640;23.310;2023-03-22T10:10:45;93732.75;;;10.69;100.00
11682;BME280;5897;42.640;23.310;2023-03-22T10:13:20;93748.66;;;10.92;100.00
11682;BME280;5897;42.640;23.310;2023-03-22T10:15:50;93758.50;;;10.99;100.00
11682;BME280;5897;42.640;23.310;2023-03-22T10:18:21;93746.38;;;10.91;100.00
11682;BME280;5897;42.640;23.310;2023-03-22T10:20:52;93759.69;;;11.10;100.00
11682;BME280;5897;42.640;23.310;2023-03-22T10:23:28;93769.19;;;11.15;100.00
11682;BME280;5897;42.640;23.310;2023-03-22T10:25:58;93759.47;;;11.17;100.00
11682;BME280;5897;42.640;23.310;2023-03-22T10:28:30;93764.97;;;11.14;100.00
11682;BME280;5897;42.640;23.310;2023-03-22T10:31:00;93756.34;;;11.19;100.00
11682;BME280;5897;42.640;23.310;2023-03-22T10:33:34;93755.91;;;11.20;100.00
11682;BME280;5897;42.640;23.310;2023-03-22T10:36:03;93759.16;;;11.28;100.00
11682;BME280;5897;42.640;23.310;2023-03-22T10:38:36;93757.19;;;11.28;100.00
11682;BME280;5897;42.640;23.310;2023-03-22T10:41:05;93751.47;;;11.26;100.00
11682;BME280;5897;42.640;23.310;2023-03-22T10:43:35;93759.56;;;11.39;100.00
11682;BME280;5897;42.640;23.310;2023-03-22T10:46:06;93761.31;;;11.33;100.00
11682;BME280;5897;42.640;23.310;2023-03-22T10:48:38;93768.44;;;11.39;100.00
11682;BME280;5897;42.640;23.310;2023-03-22T10:51:10;93762.59;;;11.28;100.00
11682;BME280;5897;42.640;23.310;2023-03-22T10:53:46;93763.78;;;11.27;100.00
11682;BME280;5897;42.640;23.310;2023-03-22T10:56:15;93756.66;;;11.33;100.00
11682;BME280;5897;42.640;23.310;2023-03-22T10:58:45;93747.03;;;11.20;100.00
11682;BME280;5897;42.640;23.310;2023-03-22T11:01:13;93754.16;;;11.26;100.00
11682;BME280;5897;42.640;23.310;2023-03-22T11:03:42;93758.81;;;11.26;100.00
11682;BME280;5897;42.640;23.310;2023-03-22T11:06:11;93756.34;;;11.31;100.00
11682;BME280;5897;42.640;23.310;2023-03-22T11:08:41;93747.78;;;11.20;100.00
11682;BME280;5897;42.640;23.310;2023-03-22T11:11:15;93750.38;;;11.24;100.00
11682;BME280;5897;42.640;23.310;2023-03-22T11:13:49;93755.44;;;11.34;100.00
11682;BME280;5897;42.640;23.310;2023-03-22T11:16:16;93757.59;;;11.39;100.00
11682;BME280;5897;42.640;23.310;2023-03-22T11:18:44;93738.25;;;11.28;100.00
11682;BME280;5897;42.640;23.310;2023-03-22T11:21:14;93750.47;;;11.45;100.00
11682;BME280;5897;42.640;23.310;2023-03-22T11:23:46;93746.13;;;11.48;100.00
11682;BME280;5897;42.640;23.310;2023-03-22T11:26:24;93750.69;;;11.51;100.00
11682;BME280;5897;42.640;23.310;2023-03-22T11:29:00;93745.16;;;11.54;100.00
11682;BME280;5897;42.640;23.310;2023-03-22T11:31:47;93746.66;;;11.55;100.00
11682;BME280;5897;42.640;23.310;2023-03-22T11:34:16;93745.16;;;11.54;100.00
11682;BME280;5897;42.640;23.310;2023-03-22T11:36:44;93746.66;;;11.55;100.00
11682;BME280;5897;42.640;23.310;2023-03-22T11:39:15;93748.41;;;11.49;100.00
11682;BME280;5897;42.640;23.310;2023-03-22T11:41:43;93739.88;;;11.51;100.00
11682;BME280;5897;42.640;23.310;2023-03-22T11:44:14;93742.13;;;11.52;100.00
11682;BME280;5897;42.640;23.310;2023-03-22T11:46:48;93744.63;;;11.47;100.00
11682;BME280;5897;42.640;23.310;2023-03-22T11:49:16;93735.19;;;11.51;100.00
11682;BME280;5897;42.640;23.310;2023-03-22T11:51:44;93748.41;;;11.49;100.00
11682;BME280;5897;42.640;23.310;2023-03-22T11:54:14;93740.59;;;11.51;100.00
11682;BME280;5897;42.640;23.310;2023-03-22T11:56:47;93742.03;;;11.56;100.00
11682;BME280;5897;42.640;23.310;2023-03-22T11:59:22;93749.50;;;11.39;100.00
11682;BME280;5897;42.640;23.310;2023-03-22T12:01:51;93749.19;;;11.37;100.00
11682;BME280;5897;42.640;23.310;2023-03-22T12:04:23;93746.47;;;11.37;100.00
11682;BME280;5897;42.640;23.310;2023-03-22T12:06:55;93760.66;;;11.41;100.00
11682;BME280;5897;42.640;23.310;2023-03-22T12:09:27;93753.16;;;11.45;100.00
11682;BME280;5897;42.640;23.310;2023-03-22T12:12:01;93746.25;;;11.44;100.00
11682;BME280;5897;42.640;23.310;2023-03-22T12:14:32;93742.88;;;11.52;100.00
11682;BME280;5897;42.640;23.310;2023-03-22T12:17:06;93749.06;;;11.53;100.00
11682;BME280;5897;42.640;23.310;2023-03-22T12:19:48;93742.13;;;11.52;100.00
11682;BME280;5897;42.640;23.310;2023-03-22T12:22:20;93734.88;;;11.49;100.00
11682;BME280;5897;42.640;23.310;2023-03-22T12:24:48;93744.19;;;11.61;100.00
11682;BME280;5897;42.640;23.310;2023-03-22T12:27:17;93738.78;;;11.61;100.00
11682;BME280;5897;42.640;23.310;2023-03-22T12:29:52;93740.50;;;11.67;100.00
11682;BME280;5897;42.640;23.310;2023-03-22T12:32:23;93741.03;;;11.62;100.00
11682;BME280;5897;42.640;23.310;2023-03-22T12:34:52;93739.53;;;11.61;100.00
11682;BME280;5897;42.640;23.310;2023-03-22T12:37:23;93706.34;;;11.36;99.69
11682;BME280;5897;42.640;23.310;2023-03-22T12:39:55;93727.72;;;11.55;99.65
11682;BME280;5897;42.640;23.310;2023-03-22T12:42:29;93730.97;;;11.63;100.00
11682;BME280;5897;42.640;23.310;2023-03-22T12:45:02;93726.09;;;11.70;99.96
11682;BME280;5897;42.640;23.310;2023-03-22T12:47:35;93726.09;;;11.70;99.56
11682;BME280;5897;42.640;23.310;2023-03-22T12:50:12;93727.56;;;11.84;98.96
11682;BME280;5897;42.640;23.310;2023-03-22T12:52:41;93725.25;;;11.95;96.94
11682;BME280;5897;42.640;23.310;2023-03-22T12:55:19;93731.28;;;11.98;96.35
11682;BME280;5897;42.640;23.310;2023-03-22T12:57:46;93725.53;;;12.09;95.26
11682;BME280;5897;42.640;23.310;2023-03-22T13:00:19;93707.69;;;11.99;93.27
11682;BME280;5897;42.640;23.310;2023-03-22T13:02:50;93729.63;;;12.13;92.70
11682;BME280;5897;42.640;23.310;2023-03-22T13:05:20;93730.81;;;12.13;91.37
11682;BME280;5897;42.640;23.310;2023-03-22T13:07:53;93732.75;;;12.12;93.53
11682;BME280;5897;42.640;23.310;2023-03-22T13:10:57;93728.94;;;12.22;91.98
11682;BME280;5897;42.640;23.310;2023-03-22T13:13:43;93723.94;;;11.99;94.67
11682;BME280;5897;42.640;23.310;2023-03-22T13:16:21;93721.28;;;12.08;94.31
11682;BME280;5897;42.640;23.310;2023-03-22T13:18:58;93724.69;;;11.99;95.91
11682;BME280;5897;42.640;23.310;2023-03-22T13:21:28;93731.63;;;12.01;96.38